Kowloon, China
Current Conditions -  °F | °C
As of 4:30 AM on Saturday 22 Nov 2014 (Local Time) from VHHH Reporting Station
Few Clouds Few Clouds  
Wind Chill: 72°   Ceiling: Unl
Heat Index: 72°   Visibility: 6mi
Dew Point: 63°   Wind: 6mph
Humidity: 73%   Direction: 90°E
Pressure: 30"   Gusts: NA
Location:  22.31°N, 114.18°E
Report Text: VHHH 212030Z 09005KT 9999 FEW020 22/17 Q1016 NOSIG
Loading
Personal Weather Stations






























Interactive Weather Map New forecast layout! Learn more

10-Day Weather Forecast

Advertisements
Track Severe Weather on mobile